Kankakee, IL (60901)

8:53 PM CST on December 10, 2016 (GMT -0600)
Greater Kankakee | | Change Station
Active Advisory: Winter Weather Advisory

Elev 630 ft 41.07 °N, 87.85 °W | Updated 37 days ago

Snow
Snow
73 °F
Feels Like 73 °F
N
7
Wind Variable Wind from South
Gusts mph

Today
High -- | Low -- °F
--% Chance of Precip.
Yesterday
High -- | Low -- °F
Precip. -- in
Pressure 30.14 in
Visibility 7.0 miles
Clouds Overcast 400 ft
Dew Point 64 °F
Humidity 74%
Rainfall 0.00 in
Snow Depth Not available.
7:06 AM 4:22 PM
Waxing Gibbous, 88% visible
METAR KIKK 030935Z AUTO 36005KT 7SM OVC004 14/14 A3014 RMK AO2 T01400135
Pressure 30.14 in
Visibility 7.0 miles
Clouds Overcast 400 ft
Dew Point 64 °F
Humidity 74%
Rainfall 0.00 in
Snow Depth Not available.
7:06 AM 4:22 PM
Waxing Gibbous, 88% visible
METAR KIKK 030935Z AUTO 36005KT 7SM OVC004 14/14 A3014 RMK AO2 T01400135

10-Day Weather Forecast

Almanac

Astronomy

Dec. 10, 2016 Rise Set
Actual Time
Civil Twilight
Nautical Twilight
Astronomical Twilight
Moon
Length of Visible Light
Length of Day
Tomorrow will be .
, % of the Moon is Illuminated

Today's Extremes

State Highs State Lows

Community

WunderPhotos

Upload Photos

1,956,692 photos uploaded!

WunderBlog® & News

Nearby

Air Quality

  Air Quality AQ Index Pollutant
Not available.

Snow Depth

Station Depth Elevation

Earthquake Activity

City Distance Mag. Time & Date
Minimum magnitude displayed is 2.5.

Coastal Water Temperatures

Place Temperature

Stations

Nearby Weather Stations

Station Location Temp. Windchill Dew Point Humidity Wind Precip. Elev Updated Type
                   

Watches & Warnings

Winter Weather Advisory
Issued: 3:39 PM CST Dec. 10, 2016 – National Weather Service

... Winter Weather Advisory remains in effect until midnight CST
Sunday night...

* timing... snow will develop by evening and will persist tonight
through Sunday before diminishing Sunday evening.

* Snow accumulations... 3 to 6 inches of snow is expected to fall
through Sunday evening. The snow could mix with or chance to
rain for a period Sunday evening.

* Impacts... plan on difficult driving conditions.

Precautionary/preparedness actions...

A Winter Weather Advisory for snow means that periods of snow
will cause primarily travel difficulties. Be prepared for snow
covered roads and limited visibilities... and use caution while
driving.



Kjb